createdAt,value
2023-01-20T00:01:47.848Z,100.00
2023-01-20T00:04:15.395Z,100.00
2023-01-20T00:06:43.404Z,100.00
2023-01-20T00:09:14.433Z,100.00
2023-01-20T00:11:44.833Z,100.00
2023-01-20T00:14:11.860Z,100.00
2023-01-20T00:16:39.799Z,100.00
2023-01-20T00:19:07.747Z,100.00
2023-01-20T00:21:35.637Z,100.00
2023-01-20T00:24:06.822Z,100.00
2023-01-20T00:26:34.980Z,100.00
2023-01-20T00:29:05.949Z,100.00
2023-01-20T00:31:33.349Z,100.00
2023-01-20T00:34:01.209Z,100.00
2023-01-20T00:36:29.931Z,100.00
2023-01-20T00:38:57.959Z,100.00
2023-01-20T00:41:26.168Z,100.00
2023-01-20T00:43:53.713Z,100.00
2023-01-20T00:46:23.008Z,100.00
2023-01-20T00:48:50.706Z,100.00
2023-01-20T00:51:18.259Z,100.00
2023-01-20T00:53:46.417Z,100.00
2023-01-20T00:56:14.497Z,100.00
2023-01-20T00:58:44.449Z,100.00
2023-01-20T01:01:15.646Z,100.00
2023-01-20T01:03:43.778Z,100.00
2023-01-20T01:06:13.166Z,100.00
2023-01-20T01:08:41.287Z,100.00
2023-01-20T01:11:08.344Z,100.00
2023-01-20T01:13:36.025Z,100.00
2023-01-20T01:16:03.175Z,100.00
2023-01-20T01:18:32.845Z,100.00
2023-01-20T01:21:00.440Z,100.00
2023-01-20T01:23:28.525Z,100.00
2023-01-20T01:25:57.006Z,100.00
2023-01-20T01:28:25.498Z,100.00
2023-01-20T01:30:53.568Z,100.00
2023-01-20T01:33:21.112Z,100.00
2023-01-20T01:36:03.669Z,100.00
2023-01-20T01:38:31.021Z,100.00
2023-01-20T01:40:58.432Z,100.00
2023-01-20T01:43:27.719Z,100.00
2023-01-20T01:45:55.075Z,100.00
2023-01-20T01:48:26.883Z,100.00
2023-01-20T01:50:57.078Z,100.00
2023-01-20T01:53:25.492Z,100.00
2023-01-20T01:56:00.816Z,100.00
2023-01-20T01:58:30.716Z,100.00
2023-01-20T02:00:59.482Z,100.00
2023-01-20T02:03:36.624Z,100.00
2023-01-20T02:06:10.857Z,100.00
2023-01-20T02:08:41.076Z,100.00
2023-01-20T02:11:08.676Z,100.00
2023-01-20T02:13:36.415Z,100.00
2023-01-20T02:16:25.269Z,100.00
2023-01-20T02:19:22.540Z,100.00
2023-01-20T02:21:55.462Z,100.00
2023-01-20T02:24:40.851Z,100.00
2023-01-20T02:27:13.884Z,100.00
2023-01-20T02:29:59.610Z,100.00
2023-01-20T02:32:26.695Z,100.00
2023-01-20T02:35:04.223Z,100.00
2023-01-20T02:38:14.689Z,100.00
2023-01-20T02:40:56.458Z,100.00
2023-01-20T02:44:01.509Z,100.00
2023-01-20T02:47:04.269Z,100.00
2023-01-20T02:49:35.535Z,100.00
2023-01-20T02:52:06.054Z,100.00
2023-01-20T02:54:33.836Z,100.00
2023-01-20T02:57:01.446Z,100.00
2023-01-20T02:59:31.467Z,100.00
2023-01-20T03:02:03.210Z,100.00
2023-01-20T03:04:34.038Z,100.00
2023-01-20T03:07:01.576Z,100.00
2023-01-20T03:09:34.757Z,100.00
2023-01-20T03:12:05.310Z,100.00
2023-01-20T03:14:33.299Z,100.00
2023-01-20T03:17:02.050Z,100.00
2023-01-20T03:19:29.751Z,100.00
2023-01-20T03:21:57.392Z,100.00
2023-01-20T03:24:24.950Z,100.00
2023-01-20T03:26:51.663Z,100.00
2023-01-20T03:29:19.224Z,100.00
2023-01-20T03:31:58.136Z,100.00
2023-01-20T03:34:26.535Z,100.00
2023-01-20T03:36:54.375Z,100.00
2023-01-20T03:39:21.896Z,100.00
2023-01-20T03:42:09.007Z,100.00
2023-01-20T03:44:54.106Z,100.00
2023-01-20T03:47:34.676Z,100.00
2023-01-20T03:50:07.895Z,100.00
2023-01-20T03:52:46.489Z,100.00
2023-01-20T03:55:35.689Z,100.00
2023-01-20T03:58:10.330Z,100.00
2023-01-20T04:00:43.142Z,100.00
2023-01-20T04:03:16.488Z,100.00
2023-01-20T04:05:44.625Z,100.00
2023-01-20T04:08:12.847Z,100.00
2023-01-20T04:10:41.016Z,100.00
2023-01-20T04:13:08.531Z,100.00
2023-01-20T04:15:38.453Z,100.00
2023-01-20T04:18:16.263Z,100.00
2023-01-20T04:20:45.211Z,100.00
2023-01-20T04:23:24.262Z,100.00
2023-01-20T04:25:58.245Z,100.00
2023-01-20T04:28:26.316Z,100.00
2023-01-20T04:30:54.537Z,100.00
2023-01-20T04:33:22.727Z,100.00
2023-01-20T04:35:50.874Z,100.00
2023-01-20T04:38:18.900Z,100.00
2023-01-20T04:40:47.007Z,100.00
2023-01-20T04:43:15.549Z,100.00
2023-01-20T04:45:43.520Z,100.00
2023-01-20T04:48:12.058Z,100.00
2023-01-20T04:50:43.484Z,100.00
2023-01-20T04:53:16.790Z,100.00
2023-01-20T04:55:45.356Z,100.00
2023-01-20T04:58:13.456Z,100.00
2023-01-20T05:00:42.964Z,100.00
2023-01-20T05:03:11.909Z,100.00
2023-01-20T05:05:39.676Z,100.00
2023-01-20T05:08:07.976Z,100.00
2023-01-20T05:10:35.995Z,100.00
2023-01-20T05:13:03.538Z,100.00
2023-01-20T05:15:31.633Z,100.00
2023-01-20T05:17:59.811Z,100.00
2023-01-20T05:20:28.076Z,100.00
2023-01-20T05:22:55.866Z,100.00
2023-01-20T05:25:24.109Z,100.00
2023-01-20T05:27:51.904Z,100.00
2023-01-20T05:30:20.186Z,100.00
2023-01-20T05:32:50.136Z,100.00
2023-01-20T05:35:19.033Z,100.00
2023-01-20T05:37:46.948Z,100.00
2023-01-20T05:40:13.647Z,100.00
2023-01-20T05:42:41.346Z,100.00
2023-01-20T05:45:12.482Z,100.00
2023-01-20T05:47:40.677Z,100.00
2023-01-20T05:50:09.367Z,100.00
2023-01-20T05:52:37.740Z,100.00
2023-01-20T05:55:06.759Z,100.00
2023-01-20T05:57:34.674Z,100.00
2023-01-20T06:00:03.277Z,100.00
2023-01-20T06:02:34.528Z,100.00
2023-01-20T06:05:02.541Z,100.00
2023-01-20T06:07:31.074Z,100.00
2023-01-20T06:09:58.688Z,100.00
2023-01-20T06:12:26.673Z,100.00
2023-01-20T06:14:54.541Z,100.00
2023-01-20T06:17:22.344Z,100.00
2023-01-20T06:19:50.813Z,100.00
2023-01-20T06:22:20.354Z,100.00
2023-01-20T06:24:48.256Z,100.00
2023-01-20T06:27:16.991Z,100.00
2023-01-20T06:29:47.877Z,100.00
2023-01-20T06:32:15.389Z,100.00
2023-01-20T06:34:42.902Z,100.00
2023-01-20T06:37:11.083Z,100.00
2023-01-20T06:39:39.001Z,100.00
2023-01-20T06:42:07.466Z,100.00
2023-01-20T06:44:35.103Z,100.00
2023-01-20T06:47:02.844Z,100.00
2023-01-20T06:49:30.953Z,100.00
2023-01-20T06:51:59.155Z,100.00
2023-01-20T06:54:27.271Z,100.00
2023-01-20T06:56:55.957Z,100.00
2023-01-20T06:59:24.382Z,100.00
2023-01-20T07:01:52.197Z,100.00
2023-01-20T07:04:20.254Z,100.00
2023-01-20T07:06:48.451Z,100.00
2023-01-20T07:09:16.502Z,100.00
2023-01-20T07:11:44.592Z,100.00
2023-01-20T07:14:12.206Z,100.00
2023-01-20T07:16:39.809Z,100.00
2023-01-20T07:19:07.845Z,100.00
2023-01-20T07:21:35.817Z,100.00
2023-01-20T07:24:04.979Z,100.00
2023-01-20T07:26:32.778Z,100.00
2023-01-20T07:29:00.852Z,100.00
2023-01-20T07:31:29.716Z,100.00
2023-01-20T07:33:57.190Z,100.00
2023-01-20T07:36:25.173Z,100.00
2023-01-20T07:38:53.879Z,100.00
2023-01-20T07:41:21.649Z,100.00
2023-01-20T07:43:50.442Z,100.00
2023-01-20T07:46:17.678Z,100.00
2023-01-20T07:48:45.953Z,100.00
2023-01-20T07:51:16.576Z,100.00
2023-01-20T07:53:48.601Z,100.00
2023-01-20T07:56:19.390Z,100.00
2023-01-20T07:58:47.678Z,100.00
2023-01-20T08:01:35.430Z,100.00
2023-01-20T08:04:02.949Z,100.00
2023-01-20T08:06:30.915Z,100.00
2023-01-20T08:09:01.296Z,100.00
2023-01-20T08:11:29.338Z,100.00
2023-01-20T08:13:57.079Z,100.00
2023-01-20T08:16:25.384Z,95.19
2023-01-20T08:18:54.996Z,95.36
2023-01-20T08:21:24.915Z,91.26
2023-01-20T08:23:53.599Z,88.64
2023-01-20T08:26:21.685Z,89.07
2023-01-20T08:28:49.768Z,86.66
2023-01-20T08:31:19.032Z,87.54
2023-01-20T08:33:46.488Z,87.40
2023-01-20T08:36:15.979Z,86.63
2023-01-20T08:38:43.306Z,86.91
2023-01-20T08:41:15.449Z,87.08
2023-01-20T08:43:43.139Z,86.59
2023-01-20T08:48:57.827Z,85.44
2023-01-20T08:51:29.837Z,84.09
2023-01-20T08:53:57.972Z,85.20
2023-01-20T08:56:26.156Z,85.57
2023-01-20T08:58:54.179Z,84.95
2023-01-20T09:01:27.026Z,84.89
2023-01-20T09:04:05.476Z,85.57
2023-01-20T09:07:08.331Z,83.88
2023-01-20T09:09:36.829Z,83.82
2023-01-20T09:12:05.693Z,83.33
2023-01-20T09:14:33.796Z,80.72
2023-01-20T09:17:02.797Z,77.13
2023-01-20T09:19:30.777Z,79.34
2023-01-20T09:21:58.502Z,79.21
2023-01-20T09:24:26.772Z,78.57
2023-01-20T09:26:54.941Z,76.66
2023-01-20T09:29:23.094Z,77.75
2023-01-20T09:31:50.986Z,76.01
2023-01-20T09:34:24.636Z,76.25
2023-01-20T09:36:56.273Z,72.58
2023-01-20T09:39:42.373Z,70.59
2023-01-20T09:42:36.660Z,68.08
2023-01-20T09:45:25.185Z,68.96
2023-01-20T09:47:52.079Z,69.31
2023-01-20T09:50:50.532Z,68.70
2023-01-20T09:53:32.817Z,70.56
2023-01-20T09:56:17.760Z,69.86
2023-01-20T09:58:55.864Z,69.24
2023-01-20T10:01:32.009Z,69.32
2023-01-20T10:04:05.052Z,70.37
2023-01-20T10:06:39.699Z,70.06
2023-01-20T10:09:21.359Z,68.80
2023-01-20T10:11:49.413Z,70.75
2023-01-20T10:14:34.793Z,70.85
2023-01-20T10:17:13.536Z,68.59
2023-01-20T10:19:42.373Z,65.22
2023-01-20T10:22:13.321Z,64.83
2023-01-20T10:24:58.612Z,64.80
2023-01-20T10:27:26.516Z,64.47
2023-01-20T10:29:58.303Z,65.70
2023-01-20T10:32:33.786Z,66.81
2023-01-20T10:35:04.264Z,68.10
2023-01-20T10:37:32.160Z,68.00
2023-01-20T10:40:07.498Z,67.50
2023-01-20T10:42:35.586Z,67.32
2023-01-20T10:45:03.329Z,66.16
2023-01-20T10:47:50.246Z,65.13
2023-01-20T10:50:28.349Z,65.73
2023-01-20T10:53:26.894Z,65.64
2023-01-20T10:55:59.051Z,65.16
2023-01-20T10:58:32.048Z,63.79
2023-01-20T11:01:00.705Z,64.26
2023-01-20T11:03:28.672Z,64.36
2023-01-20T11:05:56.305Z,63.07
2023-01-20T11:08:29.684Z,64.77
2023-01-20T11:10:57.673Z,65.21
2023-01-20T11:13:25.506Z,65.47
2023-01-20T11:15:58.361Z,64.81
2023-01-20T11:18:32.302Z,62.59
2023-01-20T11:21:10.450Z,63.35
2023-01-20T11:23:39.820Z,61.84
2023-01-20T11:26:18.915Z,60.12
2023-01-20T11:28:55.515Z,60.43
2023-01-20T11:31:33.547Z,60.11
2023-01-20T11:34:02.907Z,59.86
2023-01-20T11:36:33.636Z,59.15
2023-01-20T11:39:01.571Z,59.61
2023-01-20T11:41:30.123Z,58.85
2023-01-20T11:43:59.022Z,58.73
2023-01-20T11:46:27.258Z,55.58
2023-01-20T11:49:36.863Z,53.53
2023-01-20T11:52:08.671Z,53.63
2023-01-20T11:54:37.369Z,54.54
2023-01-20T11:57:07.055Z,54.47
2023-01-20T11:59:35.950Z,54.59
2023-01-20T12:02:24.180Z,52.25
2023-01-20T12:05:00.292Z,50.88
2023-01-20T12:07:48.077Z,50.69
2023-01-20T12:10:25.140Z,50.01
2023-01-20T12:12:52.403Z,50.95
2023-01-20T12:15:27.675Z,50.03
2023-01-20T12:18:16.083Z,49.58
2023-01-20T12:21:08.180Z,49.61
2023-01-20T12:23:53.793Z,48.69
2023-01-20T12:26:22.613Z,50.21
2023-01-20T12:29:18.151Z,49.09
2023-01-20T12:31:49.037Z,46.25
2023-01-20T12:34:29.884Z,44.88
2023-01-20T12:37:08.831Z,43.15
2023-01-20T12:39:57.593Z,42.49
2023-01-20T12:42:46.285Z,42.37
2023-01-20T12:45:34.911Z,43.39
2023-01-20T12:48:22.189Z,41.50
2023-01-20T12:51:16.701Z,40.28
2023-01-20T12:54:47.406Z,41.60
2023-01-20T12:57:31.473Z,41.23
2023-01-20T13:00:35.274Z,40.68
2023-01-20T13:03:24.621Z,40.57
2023-01-20T13:06:12.788Z,40.90
2023-01-20T13:08:58.791Z,40.10
2023-01-20T13:11:46.420Z,39.77
2023-01-20T13:14:18.415Z,39.35
2023-01-20T13:17:07.396Z,37.19
2023-01-20T13:19:37.822Z,37.82
2023-01-20T13:22:11.462Z,36.44
2023-01-20T13:24:39.791Z,36.07
2023-01-20T13:27:07.526Z,36.15
2023-01-20T13:29:37.472Z,37.07
2023-01-20T13:32:14.953Z,36.91
2023-01-20T13:34:43.032Z,34.98
2023-01-20T13:37:38.185Z,34.98
2023-01-20T13:40:26.821Z,35.55
2023-01-20T13:43:26.806Z,34.77
2023-01-20T13:46:05.793Z,35.46
2023-01-20T13:48:33.940Z,34.77
2023-01-20T13:51:16.644Z,34.84
2023-01-20T13:53:44.901Z,34.07
2023-01-20T13:56:26.315Z,33.36
2023-01-20T13:58:54.521Z,32.12
2023-01-20T14:01:22.610Z,31.90
2023-01-20T14:04:07.823Z,32.17
2023-01-20T14:06:36.239Z,31.18
2023-01-20T14:09:03.980Z,31.33
2023-01-20T14:11:32.022Z,30.80
2023-01-20T14:14:05.812Z,31.11
2023-01-20T14:16:36.071Z,30.69
2023-01-20T14:19:16.051Z,29.82
2023-01-20T14:21:44.110Z,29.72
2023-01-20T14:24:44.119Z,29.96
2023-01-20T14:27:35.693Z,30.87
2023-01-20T14:30:23.308Z,32.19
2023-01-20T14:32:51.872Z,32.24
2023-01-20T14:35:27.536Z,31.99
2023-01-20T14:37:54.847Z,34.80
2023-01-20T14:40:49.547Z,36.93
2023-01-20T14:43:38.410Z,37.48
2023-01-20T14:46:06.662Z,39.94
2023-01-20T14:48:35.376Z,41.57
2023-01-20T14:51:04.332Z,41.91
2023-01-20T14:53:32.402Z,43.49
2023-01-20T14:56:08.335Z,43.28
2023-01-20T14:58:36.508Z,45.40
2023-01-20T15:01:09.493Z,45.04
2023-01-20T15:03:37.650Z,45.35
2023-01-20T15:06:10.642Z,45.55
2023-01-20T15:08:37.386Z,45.20
2023-01-20T15:11:19.038Z,45.68
2023-01-20T15:13:52.954Z,43.85
2023-01-20T15:16:25.201Z,44.79
2023-01-20T15:19:13.653Z,43.37
2023-01-20T15:21:42.601Z,42.30
2023-01-20T15:24:24.037Z,41.47
2023-01-20T15:26:53.244Z,40.21
2023-01-20T15:29:27.802Z,38.66
2023-01-20T15:31:56.305Z,39.42
2023-01-20T15:34:27.476Z,41.37
2023-01-20T15:36:55.752Z,41.61
2023-01-20T15:39:23.795Z,42.66
2023-01-20T15:41:57.017Z,42.87
2023-01-20T15:44:25.469Z,43.65
2023-01-20T15:46:54.746Z,45.07
2023-01-20T15:49:25.518Z,45.59
2023-01-20T15:51:53.294Z,46.54
2023-01-20T15:54:21.370Z,47.83
2023-01-20T15:56:49.569Z,48.21
2023-01-20T15:59:18.231Z,49.56
2023-01-20T16:01:51.777Z,50.17
2023-01-20T16:04:20.715Z,51.74
2023-01-20T16:06:49.338Z,52.54
2023-01-20T16:09:25.696Z,53.51
2023-01-20T16:11:53.450Z,54.36
2023-01-20T16:14:21.231Z,54.55
2023-01-20T16:16:51.646Z,55.43
2023-01-20T16:19:19.593Z,56.10
2023-01-20T16:21:47.242Z,56.17
2023-01-20T16:24:15.223Z,56.99
2023-01-20T16:26:42.729Z,56.87
2023-01-20T16:29:10.723Z,57.47
2023-01-20T16:31:38.608Z,58.04
2023-01-20T16:34:07.879Z,59.32
2023-01-20T16:36:35.889Z,60.20
2023-01-20T16:39:03.851Z,60.05
2023-01-20T16:41:32.070Z,60.19
2023-01-20T16:44:02.920Z,61.31
2023-01-20T16:46:31.571Z,61.63
2023-01-20T16:49:01.489Z,62.51
2023-01-20T16:51:29.927Z,62.08
2023-01-20T16:53:57.013Z,62.46
2023-01-20T16:56:28.290Z,63.05
2023-01-20T16:58:59.764Z,63.56
2023-01-20T17:01:29.078Z,64.71
2023-01-20T17:03:59.022Z,65.18
2023-01-20T17:06:28.373Z,66.05
2023-01-20T17:08:57.847Z,66.69
2023-01-20T17:11:27.448Z,67.30
2023-01-20T17:13:55.135Z,68.55
2023-01-20T17:16:22.513Z,69.11
2023-01-20T17:18:53.978Z,69.75
2023-01-20T17:21:22.446Z,70.37
2023-01-20T17:23:51.210Z,70.23
2023-01-20T17:26:19.008Z,70.63
2023-01-20T17:28:46.800Z,71.95
2023-01-20T17:31:14.663Z,72.68
2023-01-20T17:33:48.949Z,73.86
2023-01-20T17:36:16.949Z,76.05
2023-01-20T17:38:44.587Z,78.62
2023-01-20T17:41:12.107Z,77.79
2023-01-20T17:43:40.891Z,76.90
2023-01-20T17:46:22.447Z,77.86
2023-01-20T17:48:50.372Z,78.73
2023-01-20T17:51:18.812Z,78.76
2023-01-20T17:53:47.104Z,79.01
2023-01-20T17:56:15.442Z,79.37
2023-01-20T17:58:43.964Z,79.56
2023-01-20T18:01:25.656Z,80.19
2023-01-20T18:03:54.950Z,80.00
2023-01-20T18:06:23.824Z,78.51
2023-01-20T18:08:56.526Z,78.77
2023-01-20T18:11:24.190Z,77.86
2023-01-20T18:13:52.174Z,77.48
2023-01-20T18:16:20.381Z,78.09
2023-01-20T18:18:48.893Z,77.24
2023-01-20T18:21:38.812Z,78.00
2023-01-20T18:24:07.495Z,78.27
2023-01-20T18:26:36.356Z,78.55
2023-01-20T18:29:08.369Z,79.52
2023-01-20T18:31:35.635Z,79.87
2023-01-20T18:34:05.016Z,80.13
2023-01-20T18:36:36.990Z,79.19
2023-01-20T18:39:43.959Z,78.43
2023-01-20T18:42:12.559Z,79.82
2023-01-20T18:44:40.472Z,80.41
2023-01-20T18:47:08.827Z,81.55
2023-01-20T18:49:36.885Z,80.90
2023-01-20T18:52:06.207Z,82.18
2023-01-20T18:54:37.481Z,82.02
2023-01-20T18:57:06.321Z,82.75
2023-01-20T18:59:36.090Z,83.46
2023-01-20T19:02:04.243Z,82.69
2023-01-20T19:04:33.691Z,82.29
2023-01-20T19:07:01.661Z,83.03
2023-01-20T19:09:30.027Z,83.71
2023-01-20T19:12:01.166Z,84.78
2023-01-20T19:14:29.053Z,85.72
2023-01-20T19:16:56.687Z,83.96
2023-01-20T19:19:24.875Z,83.56
2023-01-20T19:21:52.899Z,83.73
2023-01-20T19:24:20.799Z,84.51
2023-01-20T19:26:49.327Z,83.54
2023-01-20T19:29:17.555Z,82.65
2023-01-20T19:31:45.472Z,82.52
2023-01-20T19:34:12.857Z,80.70
2023-01-20T19:36:40.494Z,78.69
2023-01-20T19:39:08.291Z,77.75
2023-01-20T19:41:36.458Z,76.34
2023-01-20T19:44:04.572Z,74.33
2023-01-20T19:46:33.888Z,73.19
2023-01-20T19:49:02.584Z,70.84
2023-01-20T19:51:31.660Z,70.98
2023-01-20T19:54:00.553Z,71.53
2023-01-20T19:56:30.379Z,72.41
2023-01-20T19:58:58.035Z,73.05
2023-01-20T20:01:27.716Z,73.05
2023-01-20T20:03:57.124Z,73.33
2023-01-20T20:06:32.130Z,73.54
2023-01-20T20:09:05.919Z,74.19
2023-01-20T20:11:33.538Z,74.07
2023-01-20T20:14:01.703Z,75.17
2023-01-20T20:16:30.479Z,76.70
2023-01-20T20:18:57.853Z,76.88
2023-01-20T20:21:25.818Z,77.39
2023-01-20T20:23:55.043Z,77.56
2023-01-20T20:26:24.313Z,77.85
2023-01-20T20:28:52.245Z,77.13
2023-01-20T20:31:30.246Z,77.48
2023-01-20T20:34:01.849Z,76.89
2023-01-20T20:36:31.018Z,77.07
2023-01-20T20:39:01.687Z,76.70
2023-01-20T20:41:31.727Z,77.06
2023-01-20T20:44:00.239Z,77.68
2023-01-20T20:46:27.792Z,77.39
2023-01-20T20:48:56.342Z,77.31
2023-01-20T20:51:24.176Z,77.52
2023-01-20T20:53:54.529Z,77.16
2023-01-20T20:56:23.079Z,76.74
2023-01-20T20:59:01.023Z,75.77
2023-01-20T21:01:29.408Z,75.74
2023-01-20T21:03:58.193Z,75.67
2023-01-20T21:06:26.386Z,75.14
2023-01-20T21:08:53.579Z,74.21
2023-01-20T21:11:21.799Z,74.12
2023-01-20T21:13:53.077Z,72.95
2023-01-20T21:16:22.908Z,73.44
2023-01-20T21:18:50.916Z,73.48
2023-01-20T21:21:19.470Z,73.45
2023-01-20T21:23:54.582Z,73.58
2023-01-20T21:26:22.260Z,73.38
2023-01-20T21:28:50.302Z,73.53
2023-01-20T21:31:21.343Z,73.46
2023-01-20T21:33:53.553Z,73.25
2023-01-20T21:36:23.105Z,71.51
2023-01-20T21:38:50.816Z,71.83
2023-01-20T21:41:18.743Z,73.08
2023-01-20T21:44:04.880Z,74.38
2023-01-20T21:46:38.963Z,75.13
2023-01-20T21:49:26.082Z,74.19
2023-01-20T21:52:13.482Z,74.94
2023-01-20T21:54:41.589Z,75.82
2023-01-20T21:57:09.367Z,74.64
2023-01-20T21:59:37.841Z,74.17
2023-01-20T22:02:06.123Z,74.39
2023-01-20T22:04:34.141Z,75.17
2023-01-20T22:07:01.780Z,74.81
2023-01-20T22:09:29.590Z,74.33
2023-01-20T22:11:58.062Z,74.09
2023-01-20T22:14:26.242Z,73.80
2023-01-20T22:16:59.709Z,72.82
2023-01-20T22:19:27.385Z,72.35
2023-01-20T22:21:56.843Z,72.26
2023-01-20T22:24:24.467Z,72.61
2023-01-20T22:26:52.598Z,73.57
2023-01-20T22:29:20.754Z,75.08
2023-01-20T22:31:48.120Z,74.75
2023-01-20T22:34:16.399Z,75.47
2023-01-20T22:36:46.722Z,75.57
2023-01-20T22:39:14.961Z,75.21
2023-01-20T22:41:42.890Z,74.78
2023-01-20T22:44:10.477Z,73.70
2023-01-20T22:46:38.160Z,73.92
2023-01-20T22:49:05.343Z,74.07
2023-01-20T22:51:32.951Z,74.17
2023-01-20T22:54:00.916Z,73.81
2023-01-20T22:56:32.071Z,73.26
2023-01-20T22:59:00.801Z,72.89
2023-01-20T23:01:35.834Z,72.22
2023-01-20T23:04:04.752Z,74.05
2023-01-20T23:06:33.740Z,74.62
2023-01-20T23:09:01.625Z,75.75
2023-01-20T23:11:29.432Z,76.03
2023-01-20T23:13:56.879Z,75.89
2023-01-20T23:16:24.614Z,74.60
2023-01-20T23:18:53.297Z,75.07
2023-01-20T23:21:21.818Z,75.68
2023-01-20T23:23:54.467Z,75.41
2023-01-20T23:26:24.241Z,75.74
2023-01-20T23:28:51.066Z,76.33
2023-01-20T23:31:18.544Z,76.44
2023-01-20T23:33:46.416Z,76.38
2023-01-20T23:36:36.353Z,74.80
2023-01-20T23:39:04.711Z,74.34
2023-01-20T23:41:33.042Z,74.19
2023-01-20T23:44:01.263Z,73.74
2023-01-20T23:46:29.203Z,73.04
2023-01-20T23:48:56.866Z,72.96
2023-01-20T23:51:25.001Z,72.92
2023-01-20T23:53:52.943Z,72.34
2023-01-20T23:56:23.814Z,72.51
2023-01-20T23:58:52.292Z,71.47
